createdAt,value
2022-12-05T00:01:30.306Z,41.55
2022-12-05T00:03:59.767Z,41.56
2022-12-05T00:06:28.334Z,41.59
2022-12-05T00:08:55.686Z,41.47
2022-12-05T00:11:25.185Z,41.35
2022-12-05T00:13:54.636Z,41.49
2022-12-05T00:16:23.246Z,41.92
2022-12-05T00:18:50.319Z,42.40
2022-12-05T00:21:22.362Z,42.68
2022-12-05T00:23:52.621Z,42.63
2022-12-05T00:26:20.887Z,42.76
2022-12-05T00:28:51.130Z,43.26
2022-12-05T00:31:20.944Z,43.45
2022-12-05T00:33:48.998Z,43.37
2022-12-05T00:36:17.701Z,43.96
2022-12-05T00:38:45.691Z,43.75
2022-12-05T00:41:15.815Z,43.97
2022-12-05T00:43:43.436Z,43.83
2022-12-05T00:46:18.225Z,43.47
2022-12-05T00:48:45.372Z,43.60
2022-12-05T00:51:15.233Z,43.80
2022-12-05T00:53:42.689Z,43.24
2022-12-05T00:56:11.523Z,43.91
2022-12-05T00:58:39.138Z,43.28
2022-12-05T01:01:11.186Z,43.41
2022-12-05T01:03:38.601Z,43.88
2022-12-05T01:06:06.735Z,43.89
2022-12-05T01:08:34.062Z,43.39
2022-12-05T01:11:01.257Z,43.88
2022-12-05T01:13:29.187Z,43.94
2022-12-05T01:15:56.253Z,43.61
2022-12-05T01:18:23.937Z,44.12
2022-12-05T01:20:51.262Z,43.98
2022-12-05T01:23:18.799Z,44.19
2022-12-05T01:25:47.126Z,44.90
2022-12-05T01:28:14.948Z,44.28
2022-12-05T01:30:43.490Z,44.13
2022-12-05T01:33:11.340Z,44.13
2022-12-05T01:35:39.374Z,44.08
2022-12-05T01:38:07.142Z,44.31
2022-12-05T01:40:36.391Z,44.65
2022-12-05T01:43:03.812Z,44.55
2022-12-05T01:45:39.024Z,44.14
2022-12-05T01:48:08.846Z,44.02
2022-12-05T01:50:36.435Z,44.50
2022-12-05T01:53:04.385Z,44.67
2022-12-05T01:55:31.556Z,44.91
2022-12-05T01:57:59.186Z,44.55
2022-12-05T02:00:26.527Z,44.61
2022-12-05T02:02:56.616Z,44.93
2022-12-05T02:05:27.395Z,45.10
2022-12-05T02:07:55.000Z,45.27
2022-12-05T02:10:22.215Z,45.68
2022-12-05T02:12:50.366Z,45.15
2022-12-05T02:15:23.579Z,44.91
2022-12-05T02:17:57.016Z,45.44
2022-12-05T02:20:45.839Z,45.48
2022-12-05T02:23:34.361Z,45.97
2022-12-05T02:26:01.255Z,46.35
2022-12-05T02:28:40.590Z,45.30
2022-12-05T02:31:10.417Z,45.65
2022-12-05T02:33:44.180Z,45.74
2022-12-05T02:36:15.444Z,45.72
2022-12-05T02:38:45.481Z,45.42
2022-12-05T02:41:24.329Z,45.47
2022-12-05T02:43:51.416Z,45.74
2022-12-05T02:46:21.300Z,45.92
2022-12-05T02:48:49.730Z,45.81
2022-12-05T02:51:19.952Z,45.76
2022-12-05T02:53:48.215Z,45.68
2022-12-05T02:56:16.857Z,45.54
2022-12-05T02:58:48.886Z,45.80
2022-12-05T03:01:19.400Z,46.06
2022-12-05T03:03:49.693Z,46.13
2022-12-05T03:06:23.868Z,45.61
2022-12-05T03:09:06.218Z,45.05
2022-12-05T03:11:44.757Z,46.08
2022-12-05T03:14:22.107Z,45.94
2022-12-05T03:16:57.827Z,46.14
2022-12-05T03:19:35.233Z,45.86
2022-12-05T03:22:09.375Z,46.01
2022-12-05T03:24:38.480Z,45.90
2022-12-05T03:27:09.351Z,45.21
2022-12-05T03:29:41.407Z,44.93
2022-12-05T03:32:27.492Z,44.44
2022-12-05T03:35:01.035Z,45.49
2022-12-05T03:37:32.212Z,44.98
2022-12-05T03:40:10.152Z,45.61
2022-12-05T03:42:44.182Z,45.39
2022-12-05T03:45:17.785Z,45.32
2022-12-05T03:48:02.135Z,45.25
2022-12-05T03:50:31.617Z,44.98
2022-12-05T03:53:20.100Z,46.00
2022-12-05T03:56:09.132Z,45.44
2022-12-05T03:59:00.559Z,45.44
2022-12-05T04:01:35.815Z,45.27
2022-12-05T04:04:13.543Z,45.33
2022-12-05T04:06:51.028Z,45.60
2022-12-05T04:09:22.562Z,43.81
2022-12-05T04:12:06.819Z,44.41
2022-12-05T04:14:45.870Z,44.12
2022-12-05T04:17:32.780Z,44.57
2022-12-05T04:20:22.726Z,44.61
2022-12-05T04:22:51.811Z,44.79
2022-12-05T04:25:35.536Z,44.78
2022-12-05T04:28:22.226Z,44.75
2022-12-05T04:30:56.751Z,44.78
2022-12-05T04:33:33.559Z,44.98
2022-12-05T04:36:14.849Z,45.14
2022-12-05T04:39:05.584Z,45.18
2022-12-05T04:41:35.453Z,45.49
2022-12-05T04:44:10.736Z,44.81
2022-12-05T04:46:41.827Z,44.93
2022-12-05T04:49:15.485Z,44.52
2022-12-05T04:51:46.492Z,44.94
2022-12-05T04:54:20.619Z,45.21
2022-12-05T04:56:55.638Z,45.29
2022-12-05T04:59:28.535Z,45.21
2022-12-05T05:01:59.813Z,45.59
2022-12-05T05:04:37.580Z,44.61
2022-12-05T05:07:08.123Z,45.52
2022-12-05T05:09:37.622Z,45.12
2022-12-05T05:12:18.591Z,45.37
2022-12-05T05:14:47.915Z,45.03
2022-12-05T05:17:21.655Z,45.33
2022-12-05T05:19:49.700Z,45.59
2022-12-05T05:22:18.338Z,45.75
2022-12-05T05:24:46.595Z,45.58
2022-12-05T05:27:17.325Z,45.82
2022-12-05T05:29:45.790Z,45.55
2022-12-05T05:32:16.199Z,46.18
2022-12-05T05:34:44.327Z,45.95
2022-12-05T05:37:12.242Z,46.30
2022-12-05T05:39:40.762Z,45.91
2022-12-05T05:42:12.350Z,46.37
2022-12-05T05:44:44.626Z,46.51
2022-12-05T05:47:15.988Z,46.67
2022-12-05T05:49:43.641Z,46.63
2022-12-05T05:52:11.724Z,46.50
2022-12-05T05:54:42.652Z,46.59
2022-12-05T05:57:14.969Z,46.53
2022-12-05T05:59:45.368Z,46.32
2022-12-05T06:02:18.892Z,46.51
2022-12-05T06:04:50.415Z,46.82
2022-12-05T06:07:18.818Z,46.29
2022-12-05T06:09:50.899Z,46.27
2022-12-05T06:12:24.303Z,46.48
2022-12-05T06:14:52.619Z,46.67
2022-12-05T06:17:22.800Z,46.68
2022-12-05T06:19:52.112Z,46.62
2022-12-05T06:22:21.025Z,46.39
2022-12-05T06:24:53.283Z,46.61
2022-12-05T06:27:23.893Z,46.40
2022-12-05T06:29:57.327Z,46.51
2022-12-05T06:32:26.386Z,46.44
2022-12-05T06:34:55.290Z,46.56
2022-12-05T06:37:23.654Z,46.69
2022-12-05T06:39:52.143Z,46.67
2022-12-05T06:42:24.292Z,46.44
2022-12-05T06:45:00.648Z,45.76
2022-12-05T06:47:29.397Z,45.40
2022-12-05T06:49:57.074Z,45.38
2022-12-05T06:52:24.726Z,45.18
2022-12-05T06:54:52.844Z,44.91
2022-12-05T06:57:20.443Z,44.84
2022-12-05T06:59:47.919Z,44.53
2022-12-05T07:02:15.299Z,44.76
2022-12-05T07:04:43.894Z,43.89
2022-12-05T07:07:10.939Z,44.00
2022-12-05T07:09:48.511Z,44.57
2022-12-05T07:12:17.109Z,44.00
2022-12-05T07:14:49.078Z,44.07
2022-12-05T07:17:18.347Z,43.39
2022-12-05T07:19:47.063Z,43.50
2022-12-05T07:22:16.135Z,43.78
2022-12-05T07:24:44.131Z,43.86
2022-12-05T07:27:11.201Z,43.56
2022-12-05T07:29:38.092Z,43.64
2022-12-05T07:32:05.229Z,43.75
2022-12-05T07:34:32.258Z,43.79
2022-12-05T07:37:00.099Z,43.78
2022-12-05T07:39:27.169Z,43.69
2022-12-05T07:41:54.028Z,43.68
2022-12-05T07:44:21.101Z,43.39
2022-12-05T07:46:48.152Z,43.39
2022-12-05T07:49:16.279Z,43.26
2022-12-05T07:51:43.238Z,43.27
2022-12-05T07:54:10.333Z,42.92
2022-12-05T07:56:37.271Z,42.82
2022-12-05T07:59:04.231Z,43.16
2022-12-05T08:01:31.295Z,43.37
2022-12-05T08:03:59.279Z,43.08
2022-12-05T08:06:27.394Z,43.43
2022-12-05T08:08:54.560Z,42.87
2022-12-05T08:11:26.298Z,42.84
2022-12-05T08:13:54.009Z,43.52
2022-12-05T08:16:24.843Z,42.90
2022-12-05T08:18:59.659Z,42.98
2022-12-05T08:21:26.704Z,43.16
2022-12-05T08:23:56.065Z,42.91
2022-12-05T08:26:30.630Z,42.55
2022-12-05T08:28:59.123Z,43.06
2022-12-05T08:31:27.320Z,43.10
2022-12-05T08:33:59.081Z,43.25
2022-12-05T08:36:27.857Z,43.67
2022-12-05T08:39:01.913Z,43.15
2022-12-05T08:41:30.363Z,42.99
2022-12-05T08:43:58.555Z,42.82
2022-12-05T08:46:26.258Z,42.76
2022-12-05T08:48:53.286Z,42.68
2022-12-05T08:51:20.240Z,42.24
2022-12-05T08:53:47.627Z,41.73
2022-12-05T08:56:14.843Z,40.90
2022-12-05T08:58:41.937Z,40.56
2022-12-05T09:01:11.090Z,39.69
2022-12-05T09:03:43.319Z,39.41
2022-12-05T09:06:14.832Z,39.07
2022-12-05T09:08:42.617Z,38.23
2022-12-05T09:11:12.014Z,37.31
2022-12-05T09:13:40.926Z,36.84
2022-12-05T09:16:08.342Z,36.08
2022-12-05T09:18:38.342Z,35.55
2022-12-05T09:21:09.503Z,35.26
2022-12-05T09:23:37.964Z,34.60
2022-12-05T09:26:06.690Z,34.78
2022-12-05T09:28:34.440Z,34.33
2022-12-05T09:31:03.287Z,33.68
2022-12-05T09:33:31.665Z,33.64
2022-12-05T09:36:15.617Z,32.97
2022-12-05T09:38:43.219Z,32.51
2022-12-05T09:41:16.613Z,32.43
2022-12-05T09:43:43.746Z,31.96
2022-12-05T09:46:21.012Z,31.66
2022-12-05T09:48:49.399Z,31.36
2022-12-05T09:51:17.258Z,31.33
2022-12-05T09:53:45.352Z,30.80
2022-12-05T09:56:18.419Z,30.52
2022-12-05T09:58:47.673Z,30.42
2022-12-05T10:01:26.042Z,30.15
2022-12-05T10:03:56.737Z,29.70
2022-12-05T10:06:30.949Z,29.22
2022-12-05T10:09:01.821Z,29.33
2022-12-05T10:11:34.942Z,28.87
2022-12-05T10:14:10.844Z,28.25
2022-12-05T10:16:43.912Z,28.05
2022-12-05T10:19:13.007Z,28.19
2022-12-05T10:21:44.517Z,27.68
2022-12-05T10:24:17.755Z,26.91
2022-12-05T10:26:46.801Z,26.80
2022-12-05T10:29:24.019Z,26.55
2022-12-05T10:31:55.048Z,26.53
2022-12-05T10:34:29.135Z,26.20
2022-12-05T10:37:01.668Z,25.61
2022-12-05T10:39:28.842Z,25.45
2022-12-05T10:41:59.883Z,25.03
2022-12-05T10:44:26.896Z,24.42
2022-12-05T10:46:54.159Z,24.51
2022-12-05T10:49:22.526Z,23.88
2022-12-05T10:51:49.738Z,23.95
2022-12-05T10:54:29.932Z,23.61
2022-12-05T10:56:57.453Z,23.65
2022-12-05T10:59:26.526Z,22.84
2022-12-05T11:01:58.126Z,22.66
2022-12-05T11:04:27.052Z,22.81
2022-12-05T11:07:17.440Z,22.13
2022-12-05T11:12:57.598Z,21.34
2022-12-05T11:15:34.312Z,21.64
2022-12-05T11:18:22.350Z,21.31
2022-12-05T11:20:58.197Z,21.67
2022-12-05T11:23:37.498Z,20.76
2022-12-05T11:26:24.011Z,21.06
2022-12-05T11:28:51.358Z,20.86
2022-12-05T11:31:26.007Z,20.84
2022-12-05T11:34:04.677Z,19.58
2022-12-05T11:36:40.663Z,20.30
2022-12-05T11:39:09.525Z,19.82
2022-12-05T11:41:55.550Z,19.03
2022-12-05T11:44:44.140Z,19.42
2022-12-05T11:47:20.357Z,18.94
2022-12-05T11:49:50.512Z,19.08
2022-12-05T11:52:20.398Z,19.43
2022-12-05T11:55:08.123Z,19.42
2022-12-05T11:57:38.266Z,18.85
2022-12-05T12:00:14.511Z,18.95
2022-12-05T12:02:59.788Z,18.66
2022-12-05T12:05:30.899Z,18.14
2022-12-05T12:08:05.849Z,18.36
2022-12-05T12:10:57.256Z,18.59
2022-12-05T12:13:44.871Z,18.27
2022-12-05T12:16:12.832Z,18.55
2022-12-05T12:19:06.249Z,18.15
2022-12-05T12:21:46.514Z,18.06
2022-12-05T12:24:16.656Z,18.25
2022-12-05T12:26:56.176Z,18.67
2022-12-05T12:29:29.975Z,18.66
2022-12-05T12:32:09.680Z,18.22
2022-12-05T12:34:53.181Z,19.61
2022-12-05T12:37:44.593Z,20.50
2022-12-05T12:40:33.544Z,21.03
2022-12-05T12:43:52.213Z,21.34
2022-12-05T12:46:15.552Z,20.95
2022-12-05T12:48:49.071Z,21.28
2022-12-05T12:51:20.375Z,21.12
2022-12-05T12:54:02.761Z,21.26
2022-12-05T12:56:39.006Z,21.56
2022-12-05T12:59:09.934Z,21.59
2022-12-05T13:01:37.132Z,22.27
2022-12-05T13:04:26.519Z,22.49
2022-12-05T13:07:00.545Z,23.17
2022-12-05T13:09:54.288Z,22.63
2022-12-05T13:12:30.698Z,22.94
2022-12-05T13:15:01.336Z,23.49
2022-12-05T13:17:31.266Z,23.12
2022-12-05T13:20:10.880Z,22.83
2022-12-05T13:22:42.443Z,22.38
2022-12-05T13:25:14.107Z,22.40
2022-12-05T13:27:43.321Z,22.50
2022-12-05T13:30:18.301Z,23.53
2022-12-05T13:32:45.404Z,22.83
2022-12-05T13:35:48.929Z,22.60
2022-12-05T13:38:43.556Z,23.15
2022-12-05T13:41:31.804Z,23.00
2022-12-05T13:44:07.180Z,23.35
2022-12-05T13:46:39.108Z,23.90
2022-12-05T13:49:17.322Z,23.63
2022-12-05T13:51:45.868Z,23.69
2022-12-05T13:54:18.392Z,24.96
2022-12-05T13:56:48.290Z,24.56
2022-12-05T13:59:35.404Z,24.75
2022-12-05T14:02:25.364Z,24.95
2022-12-05T14:04:54.002Z,25.19
2022-12-05T14:07:38.176Z,25.75
2022-12-05T14:10:05.636Z,26.31
2022-12-05T14:12:49.163Z,26.29
2022-12-05T14:15:26.818Z,26.23
2022-12-05T14:18:06.314Z,26.22
2022-12-05T14:20:49.841Z,26.22
2022-12-05T14:23:25.341Z,26.48
2022-12-05T14:26:05.680Z,26.79
2022-12-05T14:28:47.307Z,27.33
2022-12-05T14:31:29.584Z,27.42
2022-12-05T14:34:14.182Z,27.38
2022-12-05T14:36:52.254Z,28.17
2022-12-05T14:39:40.203Z,28.91
2022-12-05T14:42:20.442Z,28.80
2022-12-05T14:44:49.116Z,29.36
2022-12-05T14:47:24.180Z,29.62
2022-12-05T14:49:53.646Z,30.22
2022-12-05T14:52:27.615Z,30.67
2022-12-05T14:54:58.727Z,31.79
2022-12-05T14:57:25.930Z,32.35
2022-12-05T14:59:56.330Z,33.18
2022-12-05T15:02:27.359Z,33.98
2022-12-05T15:04:57.702Z,34.36
2022-12-05T15:07:34.768Z,34.45
2022-12-05T15:10:05.335Z,35.34
2022-12-05T15:12:38.436Z,35.42
2022-12-05T15:15:21.738Z,35.59
2022-12-05T15:18:00.471Z,35.93
2022-12-05T15:20:40.312Z,36.43
2022-12-05T15:23:40.264Z,36.68
2022-12-05T15:26:46.282Z,36.83
2022-12-05T15:31:57.179Z,37.68
2022-12-05T15:34:26.755Z,37.33
2022-12-05T15:37:04.937Z,38.01
2022-12-05T15:39:50.680Z,38.07
2022-12-05T15:42:33.177Z,38.11
2022-12-05T15:45:15.370Z,38.36
2022-12-05T15:48:05.288Z,38.55
2022-12-05T15:53:48.067Z,38.99
2022-12-05T15:56:25.028Z,40.03
2022-12-05T15:58:55.162Z,40.17
2022-12-05T16:01:29.763Z,39.90
2022-12-05T16:04:00.325Z,39.85
2022-12-05T16:06:39.633Z,40.27
2022-12-05T16:09:15.302Z,40.65
2022-12-05T16:11:51.377Z,41.53
2022-12-05T16:14:37.199Z,41.46
2022-12-05T16:17:11.817Z,41.47
2022-12-05T16:19:39.529Z,42.40
2022-12-05T16:22:12.865Z,42.41
2022-12-05T16:24:41.190Z,42.19
2022-12-05T16:27:18.801Z,42.41
2022-12-05T16:29:46.086Z,43.45
2022-12-05T16:32:24.709Z,42.57
2022-12-05T16:34:51.833Z,42.62
2022-12-05T16:37:36.823Z,42.60
2022-12-05T16:40:09.686Z,42.46
2022-12-05T16:45:53.654Z,43.22
2022-12-05T16:48:28.493Z,43.36
2022-12-05T16:51:14.148Z,43.59
2022-12-05T16:53:45.216Z,43.46
2022-12-05T16:56:24.180Z,43.84
2022-12-05T16:58:51.863Z,43.70
2022-12-05T17:01:20.703Z,43.80
2022-12-05T17:03:48.426Z,43.99
2022-12-05T17:06:16.444Z,44.16
2022-12-05T17:08:44.487Z,44.47
2022-12-05T17:11:19.523Z,44.18
2022-12-05T17:13:50.091Z,44.26
2022-12-05T17:16:18.504Z,44.61
2022-12-05T17:18:45.867Z,44.38
2022-12-05T17:21:17.584Z,44.79
2022-12-05T17:23:54.151Z,44.71
2022-12-05T17:26:22.018Z,45.01
2022-12-05T17:28:49.625Z,44.72
2022-12-05T17:31:18.996Z,44.75
2022-12-05T17:33:46.388Z,44.89
2022-12-05T17:36:13.504Z,44.95
2022-12-05T17:38:40.676Z,45.12
2022-12-05T17:41:07.720Z,45.18
2022-12-05T17:43:34.907Z,45.52
2022-12-05T17:46:02.373Z,45.53
2022-12-05T17:48:29.652Z,45.61
2022-12-05T17:51:03.607Z,45.65
2022-12-05T17:53:36.585Z,45.98
2022-12-05T17:56:03.740Z,46.09
2022-12-05T17:58:33.297Z,46.33
2022-12-05T18:01:00.533Z,46.36
2022-12-05T18:03:27.776Z,46.55
2022-12-05T18:06:04.055Z,46.42
2022-12-05T18:08:31.387Z,46.41
2022-12-05T18:10:58.565Z,46.23
2022-12-05T18:13:25.981Z,46.12
2022-12-05T18:16:00.384Z,46.88
2022-12-05T18:18:31.967Z,46.70
2022-12-05T18:21:10.264Z,46.74
2022-12-05T18:23:44.041Z,47.28
2022-12-05T18:26:14.476Z,47.06
2022-12-05T18:28:50.709Z,47.28
2022-12-05T18:31:29.410Z,47.30
2022-12-05T18:33:57.486Z,47.61
2022-12-05T18:36:24.566Z,47.31
2022-12-05T18:41:36.826Z,47.67
2022-12-05T18:44:03.905Z,47.50
2022-12-05T18:46:31.588Z,47.37
2022-12-05T18:49:03.161Z,47.42
2022-12-05T18:51:31.129Z,48.35
2022-12-05T18:53:58.147Z,48.10
2022-12-05T18:56:27.315Z,48.04
2022-12-05T18:59:08.837Z,47.68
2022-12-05T19:01:41.732Z,47.94
2022-12-05T19:04:12.913Z,48.26
2022-12-05T19:06:41.663Z,48.33
2022-12-05T19:09:13.384Z,48.37
2022-12-05T19:11:45.655Z,48.69
2022-12-05T19:14:19.398Z,48.83
2022-12-05T19:16:49.075Z,48.58
2022-12-05T19:19:18.764Z,48.78
2022-12-05T19:21:47.293Z,49.13
2022-12-05T19:24:15.822Z,49.16
2022-12-05T19:26:44.125Z,49.02
2022-12-05T19:29:12.464Z,49.47
2022-12-05T19:31:39.807Z,49.13
2022-12-05T19:34:07.837Z,49.77
2022-12-05T19:36:37.736Z,49.58
2022-12-05T19:39:09.562Z,49.60
2022-12-05T19:41:37.154Z,49.95
2022-12-05T19:44:04.713Z,49.86
2022-12-05T19:46:33.401Z,50.06
2022-12-05T19:49:06.387Z,50.00
2022-12-05T19:51:35.106Z,50.15
2022-12-05T19:54:06.125Z,50.27
2022-12-05T19:56:42.273Z,50.30
2022-12-05T19:59:13.137Z,50.41
2022-12-05T20:01:44.066Z,50.44
2022-12-05T20:04:12.776Z,50.61
2022-12-05T20:06:48.083Z,50.68
2022-12-05T20:09:17.913Z,50.79
2022-12-05T20:11:52.448Z,50.86
2022-12-05T20:14:22.184Z,50.95
2022-12-05T20:16:49.262Z,50.95
2022-12-05T20:19:16.604Z,50.86
2022-12-05T20:21:44.736Z,51.00
2022-12-05T20:24:11.824Z,50.89
2022-12-05T20:26:42.912Z,50.81
2022-12-05T20:29:10.487Z,51.05
2022-12-05T20:31:38.842Z,51.09
2022-12-05T20:34:06.572Z,51.40
2022-12-05T20:36:35.287Z,51.18
2022-12-05T20:39:04.247Z,51.09
2022-12-05T20:41:31.304Z,51.02
2022-12-05T20:43:59.739Z,51.17
2022-12-05T20:46:27.981Z,50.95
2022-12-05T20:48:56.736Z,51.05
2022-12-05T20:51:28.256Z,50.97
2022-12-05T20:54:05.890Z,51.23
2022-12-05T20:56:48.462Z,51.19
2022-12-05T20:59:16.206Z,51.44
2022-12-05T21:01:55.806Z,51.51
2022-12-05T21:04:23.126Z,51.57
2022-12-05T21:06:51.715Z,51.89
2022-12-05T21:09:26.349Z,51.77
2022-12-05T21:11:56.871Z,51.68
2022-12-05T21:14:24.398Z,51.69
2022-12-05T21:16:53.340Z,51.58
2022-12-05T21:19:21.524Z,51.28
2022-12-05T21:21:53.929Z,51.41
2022-12-05T21:24:21.969Z,51.52
2022-12-05T21:26:51.319Z,51.73
2022-12-05T21:29:22.666Z,51.69
2022-12-05T21:31:57.655Z,51.80
2022-12-05T21:34:26.126Z,51.45
2022-12-05T21:36:53.205Z,51.65
2022-12-05T21:39:29.764Z,51.48
2022-12-05T21:41:56.895Z,51.56
2022-12-05T21:44:24.110Z,51.46
2022-12-05T21:46:51.144Z,51.65
2022-12-05T21:49:18.386Z,51.42
2022-12-05T21:51:45.457Z,51.39
2022-12-05T21:54:12.311Z,51.50
2022-12-05T21:56:40.832Z,51.74
2022-12-05T21:59:07.886Z,51.95
2022-12-05T22:01:37.822Z,51.84
2022-12-05T22:04:05.013Z,51.97
2022-12-05T22:06:36.447Z,51.91
2022-12-05T22:09:04.015Z,51.68
2022-12-05T22:11:35.248Z,51.89
2022-12-05T22:14:02.396Z,51.38
2022-12-05T22:16:33.104Z,51.88
2022-12-05T22:19:02.019Z,51.79
2022-12-05T22:21:30.380Z,51.81
2022-12-05T22:24:00.205Z,51.89
2022-12-05T22:26:27.722Z,51.91
2022-12-05T22:28:56.956Z,52.01
2022-12-05T22:31:26.406Z,51.71
2022-12-05T22:33:55.072Z,52.06
2022-12-05T22:36:23.469Z,52.13
2022-12-05T22:38:50.626Z,51.92
2022-12-05T22:41:19.209Z,51.81
2022-12-05T22:43:47.146Z,52.03
2022-12-05T22:46:15.994Z,52.19
2022-12-05T22:48:43.792Z,52.06
2022-12-05T22:51:10.873Z,52.08
2022-12-05T22:53:41.800Z,52.19
2022-12-05T22:56:09.957Z,52.35
2022-12-05T22:58:37.147Z,52.25
2022-12-05T23:01:14.363Z,52.26
2022-12-05T23:03:42.356Z,52.56
2022-12-05T23:06:11.914Z,52.40
2022-12-05T23:08:39.748Z,52.49
2022-12-05T23:11:07.294Z,52.38
2022-12-05T23:13:35.067Z,52.20
2022-12-05T23:16:08.070Z,52.79
2022-12-05T23:18:47.069Z,52.28
2022-12-05T23:21:28.856Z,52.65
2022-12-05T23:23:57.128Z,52.44
2022-12-05T23:26:25.469Z,52.54
2022-12-05T23:28:52.937Z,52.65
2022-12-05T23:31:20.332Z,52.54
2022-12-05T23:33:51.051Z,52.54
2022-12-05T23:36:19.338Z,52.35
2022-12-05T23:38:46.787Z,52.42
2022-12-05T23:41:14.970Z,52.52
2022-12-05T23:43:42.554Z,52.41
2022-12-05T23:46:10.923Z,52.92
2022-12-05T23:48:38.026Z,52.43
2022-12-05T23:51:06.682Z,52.77
2022-12-05T23:53:34.538Z,52.69
2022-12-05T23:56:06.322Z,52.33
2022-12-05T23:58:33.953Z,52.80
